createdAt,value
2019-04-22T00:05:11.506Z,100284.39
2019-04-22T00:10:32.372Z,100281.70
2019-04-22T00:15:32.567Z,100272.73
2019-04-22T00:20:45.464Z,100281.23
2019-04-22T00:25:57.270Z,100281.23
2019-04-22T00:31:02.854Z,100272.15
2019-04-22T00:36:09.551Z,100269.09
2019-04-22T00:41:14.904Z,100270.89
2019-04-22T00:46:17.579Z,100266.38
2019-04-22T00:51:28.822Z,100255.45
2019-04-22T00:56:28.305Z,100262.92
2019-04-22T01:01:39.785Z,100257.02
2019-04-22T01:06:41.382Z,100257.48
2019-04-22T01:11:50.546Z,100257.48
2019-04-22T01:16:53.781Z,100257.73
2019-04-22T01:21:58.258Z,100248.98
2019-04-22T01:27:04.664Z,100243.80
2019-04-22T01:31:51.057Z,100243.32
2019-04-22T01:37:18.767Z,100236.39
2019-04-22T01:42:37.360Z,100229.38
2019-04-22T01:47:36.734Z,100231.46
2019-04-22T01:52:47.320Z,100227.05
2019-04-22T01:57:47.632Z,100227.05
2019-04-22T02:02:57.514Z,100216.11
2019-04-22T02:08:06.824Z,100206.52
2019-04-22T02:13:08.056Z,100212.41
2019-04-22T02:18:17.843Z,100212.03
2019-04-22T02:28:38.311Z,100204.28
2019-04-22T02:34:08.999Z,100204.28
2019-04-22T02:59:14.337Z,100184.62
2019-04-22T03:04:31.864Z,100184.62
2019-04-22T03:09:25.733Z,100176.02
2019-04-22T03:14:30.279Z,100172.45
2019-04-22T03:25:23.798Z,100158.33
2019-04-22T03:40:36.846Z,100153.16
2019-04-22T03:50:37.014Z,100159.28
2019-04-22T03:55:53.157Z,100154.02
2019-04-22T04:06:00.374Z,100162.32
2019-04-22T04:11:09.674Z,100164.65
2019-04-22T04:16:19.574Z,100163.88
2019-04-22T04:31:43.189Z,100160.58
2019-04-22T04:36:42.246Z,100151.27
2019-04-22T04:41:54.280Z,100155.30
2019-04-22T04:47:05.368Z,100164.34
2019-04-22T04:52:10.435Z,100161.28
2019-04-22T04:57:32.017Z,100161.28
2019-04-22T05:02:12.305Z,100169.00
2019-04-22T05:07:17.916Z,100165.45
2019-04-22T05:12:35.521Z,100168.51
2019-04-22T05:17:27.586Z,100171.81
2019-04-22T05:27:40.019Z,100173.66
2019-04-22T05:37:54.726Z,100175.50
2019-04-22T05:42:51.255Z,100173.25
2019-04-22T05:47:57.559Z,100166.52
2019-04-22T05:53:16.591Z,100162.59
2019-04-22T05:58:12.395Z,100163.94
2019-04-22T06:03:12.242Z,100162.59
2019-04-22T06:08:22.021Z,100160.88
2019-04-22T06:13:26.763Z,100160.51
2019-04-22T06:18:33.305Z,100166.27
2019-04-22T06:28:48.172Z,100160.88
2019-04-22T06:33:54.755Z,100160.88
2019-04-22T06:38:54.435Z,100155.85
2019-04-22T06:44:05.074Z,100148.26
2019-04-22T06:49:11.124Z,100147.40
2019-04-22T06:54:17.964Z,100143.36
2019-04-22T07:00:05.539Z,100149.12
2019-04-22T07:04:58.287Z,100136.16
2019-04-22T07:10:08.200Z,100136.16
2019-04-22T07:15:21.845Z,100139.89
2019-04-22T07:20:10.560Z,100140.33
2019-04-22T07:25:32.739Z,100143.09
2019-04-22T07:30:21.903Z,100143.09
2019-04-22T07:40:40.574Z,100137.31
2019-04-22T07:45:45.772Z,100137.31
2019-04-22T07:51:02.907Z,100132.42
2019-04-22T07:55:55.457Z,100133.69
2019-04-22T08:01:03.795Z,100122.64
2019-04-22T08:11:22.217Z,100120.03
2019-04-22T08:16:29.129Z,100119.63
2019-04-22T08:21:19.747Z,100119.63
2019-04-22T08:26:27.619Z,100118.61
2019-04-22T08:31:35.693Z,100115.67
2019-04-22T08:46:57.851Z,100128.84
2019-04-22T08:51:56.253Z,100118.45
2019-04-22T08:57:01.886Z,100133.96
2019-04-22T09:02:13.285Z,100133.58
2019-04-22T09:07:20.955Z,100139.82
2019-04-22T09:12:25.864Z,100139.82
2019-04-22T09:17:31.574Z,100129.05
2019-04-22T09:22:47.290Z,100120.73
2019-04-22T09:27:48.474Z,100114.30
2019-04-22T09:32:45.174Z,100114.17
2019-04-22T09:38:01.658Z,100101.00
2019-04-22T09:43:00.645Z,100106.56
2019-04-22T09:48:06.847Z,100105.97
2019-04-22T09:53:13.390Z,100091.44
2019-04-22T09:58:09.443Z,100083.66
2019-04-22T10:03:19.972Z,100083.66
2019-04-22T10:08:31.638Z,100083.58
2019-04-22T10:13:34.629Z,100077.42
2019-04-22T10:18:42.034Z,100063.22
2019-04-22T10:23:44.310Z,100079.95
2019-04-22T10:28:52.502Z,100089.53
2019-04-22T10:33:46.563Z,100076.83
2019-04-22T10:38:34.606Z,100056.99
2019-04-22T10:43:39.175Z,100054.91
2019-04-22T10:48:44.261Z,100054.91
2019-04-22T10:53:49.380Z,100033.88
2019-04-22T10:58:53.625Z,100033.88
2019-04-22T11:03:59.471Z,100038.16
2019-04-22T11:09:06.256Z,100032.23
2019-04-22T11:14:10.698Z,100032.23
2019-04-22T11:19:14.910Z,100029.99
2019-04-22T11:24:19.034Z,100022.59
2019-04-22T11:29:23.781Z,100014.75
2019-04-22T11:34:29.078Z,99986.56
2019-04-22T11:39:36.494Z,99999.45
2019-04-22T11:44:39.230Z,99990.75
2019-04-22T11:49:43.895Z,99988.20
2019-04-22T11:54:48.584Z,99998.25
2019-04-22T11:59:52.898Z,100002.56
2019-04-22T12:04:58.186Z,100002.56
2019-04-22T12:10:15.092Z,100008.44
2019-04-22T12:15:10.676Z,100008.44
2019-04-22T12:20:18.423Z,99965.48
2019-04-22T12:25:36.144Z,99958.98
2019-04-22T12:30:30.861Z,99967.58
2019-04-22T12:35:35.026Z,99967.58
2019-04-22T12:40:48.654Z,99965.52
2019-04-22T12:45:44.900Z,99965.52
2019-04-22T12:50:52.137Z,99931.16
2019-04-22T12:55:55.458Z,99941.59
2019-04-22T13:01:01.238Z,99916.11
2019-04-22T13:06:05.959Z,99916.11
2019-04-22T13:11:15.423Z,99897.47
2019-04-22T13:16:17.469Z,99916.35
2019-04-22T13:21:22.785Z,99894.29
2019-04-22T13:26:27.278Z,99888.04
2019-04-22T13:31:32.869Z,99888.04
2019-04-22T13:36:40.025Z,99903.14
2019-04-22T13:41:48.755Z,99875.41
2019-04-22T13:52:35.256Z,99837.60
2019-04-22T13:57:19.869Z,99855.42
2019-04-22T14:02:34.657Z,99855.42
2019-04-22T14:07:38.926Z,99854.92
2019-04-22T14:12:42.938Z,99819.61
2019-04-22T14:17:47.209Z,99819.61
2019-04-22T14:22:52.648Z,99831.10
2019-04-22T14:28:03.644Z,99823.48
2019-04-22T14:33:02.756Z,99819.30
2019-04-22T14:38:08.410Z,99812.69
2019-04-22T14:44:43.034Z,99809.96
2019-04-22T14:48:45.878Z,99809.96
2019-04-22T14:53:43.333Z,99783.57
2019-04-22T14:58:31.063Z,99793.22
2019-04-22T15:03:39.943Z,99786.16
2019-04-22T15:08:42.635Z,99794.91
2019-04-22T15:13:47.475Z,99790.36
2019-04-22T15:18:56.017Z,99787.48
2019-04-22T15:24:20.503Z,99804.91
2019-04-22T15:29:25.414Z,99797.27
2019-04-22T15:34:32.577Z,99791.23
2019-04-22T15:39:36.811Z,99805.84
2019-04-22T15:44:42.208Z,99797.31
2019-04-22T15:49:47.841Z,99792.69
2019-04-22T15:54:53.883Z,99810.00
2019-04-22T16:00:14.768Z,99793.57
2019-04-22T16:05:04.492Z,99799.30
2019-04-22T16:10:10.122Z,99799.30
2019-04-22T16:15:16.096Z,99795.31
2019-04-22T16:20:21.631Z,99805.98
2019-04-22T16:25:47.197Z,99783.05
2019-04-22T16:30:51.410Z,99794.81
2019-04-22T16:35:55.583Z,99768.23
2019-04-22T16:41:00.912Z,99790.41
2019-04-22T16:46:05.668Z,99769.90
2019-04-22T16:51:10.018Z,99777.58
2019-04-22T16:56:15.195Z,99779.89
2019-04-22T17:01:38.702Z,99775.84
2019-04-22T17:06:43.624Z,99772.28
2019-04-22T17:11:48.029Z,99767.59
2019-04-22T17:16:52.883Z,99779.14
2019-04-22T17:21:57.642Z,99795.20
2019-04-22T17:27:02.258Z,99778.08
2019-04-22T17:32:13.222Z,99797.02
2019-04-22T17:37:19.191Z,99779.72
2019-04-22T17:42:39.931Z,99815.66
2019-04-22T17:48:04.324Z,99815.66
2019-04-22T17:53:15.194Z,99804.27
2019-04-22T17:58:21.054Z,99804.27
2019-04-22T18:03:13.099Z,99804.00
2019-04-22T18:08:25.606Z,99798.23
2019-04-22T18:13:40.983Z,99799.70
2019-04-22T18:18:36.932Z,99787.59
2019-04-22T18:23:29.404Z,99794.08
2019-04-22T18:28:50.881Z,99798.51
2019-04-22T18:33:52.699Z,99796.58
2019-04-22T18:39:06.346Z,99797.68
2019-04-22T18:44:09.971Z,99806.98
2019-04-22T18:49:11.084Z,99806.98
2019-04-22T18:54:48.449Z,99806.03
2019-04-22T18:59:33.811Z,99804.07
2019-04-22T19:04:44.369Z,99802.98
2019-04-22T19:10:13.342Z,99807.44
2019-04-22T19:15:12.921Z,99800.94
2019-04-22T19:20:18.763Z,99789.05
2019-04-22T19:25:15.340Z,99802.16
2019-04-22T19:30:30.225Z,99804.77
2019-04-22T19:35:26.875Z,99804.39
2019-04-22T19:40:47.876Z,99804.39
2019-04-22T19:45:39.886Z,99806.73
2019-04-22T19:51:00.174Z,99800.33
2019-04-22T19:55:53.900Z,99790.80
2019-04-22T20:01:25.485Z,99784.15
2019-04-22T20:06:47.761Z,99784.15
2019-04-22T20:11:57.440Z,99784.91
2019-04-22T20:16:54.442Z,99777.81
2019-04-22T20:22:03.111Z,99760.14
2019-04-22T20:27:15.281Z,99760.14
2019-04-22T20:32:18.830Z,99751.67
2019-04-22T20:37:29.978Z,99744.43
2019-04-22T20:42:48.761Z,99744.43
2019-04-22T20:47:32.278Z,99727.49
2019-04-22T20:52:50.265Z,99729.63
2019-04-22T20:57:48.293Z,99725.23
2019-04-22T21:02:43.957Z,99725.23
2019-04-22T21:08:05.283Z,99717.87
2019-04-22T21:13:00.124Z,99714.67
2019-04-22T21:18:08.263Z,99714.44
2019-04-22T21:23:11.055Z,99714.44
2019-04-22T21:28:21.661Z,99695.50
2019-04-22T21:33:20.948Z,99710.56
2019-04-22T21:38:33.172Z,99703.58
2019-04-22T21:43:44.943Z,99702.09
2019-04-22T21:48:46.352Z,99700.47
2019-04-22T21:53:58.601Z,99697.06
2019-04-22T21:59:05.167Z,99697.06
2019-04-22T22:04:05.038Z,99696.92
2019-04-22T22:09:15.569Z,99696.92
2019-04-22T22:14:16.989Z,99658.31
2019-04-22T22:19:22.456Z,99669.33
2019-04-22T22:24:34.244Z,99666.00
2019-04-22T22:29:50.325Z,99661.31
2019-04-22T22:34:42.642Z,99655.80
2019-04-22T22:39:39.207Z,99659.71
2019-04-22T22:44:40.418Z,99648.06
2019-04-22T22:49:57.612Z,99648.06
2019-04-22T22:55:04.214Z,99631.59
2019-04-22T23:00:14.984Z,99638.72
2019-04-22T23:05:21.780Z,99627.78
2019-04-22T23:10:25.285Z,99619.69
2019-04-22T23:15:25.701Z,99616.48
2019-04-22T23:20:19.561Z,99606.48
2019-04-22T23:25:45.040Z,99617.34
2019-04-22T23:30:56.746Z,99617.34
2019-04-22T23:36:08.764Z,99608.25
2019-04-22T23:41:45.824Z,99586.84
2019-04-22T23:46:55.326Z,99592.80
2019-04-22T23:52:10.177Z,99588.25
2019-04-22T23:57:04.633Z,99588.25
